createdAt,value
2019-05-23T00:00:38.439Z,12.30
2019-05-23T00:01:38.411Z,12.50
2019-05-23T00:02:38.412Z,12.90
2019-05-23T00:03:38.432Z,12.10
2019-05-23T00:04:38.389Z,12.20
2019-05-23T00:05:38.369Z,13.90
2019-05-23T00:06:38.378Z,13.60
2019-05-23T00:07:38.358Z,12.80
2019-05-23T00:08:38.347Z,12.00
2019-05-23T00:09:38.348Z,11.10
2019-05-23T00:10:38.394Z,11.70
2019-05-23T00:11:40.102Z,12.50
2019-05-23T00:12:38.306Z,13.00
2019-05-23T00:13:38.310Z,11.30
2019-05-23T00:14:38.273Z,12.70
2019-05-23T00:15:38.288Z,13.10
2019-05-23T00:16:38.255Z,13.30
2019-05-23T00:17:38.254Z,12.00
2019-05-23T00:18:38.253Z,11.40
2019-05-23T00:19:38.232Z,12.90
2019-05-23T00:20:38.219Z,12.20
2019-05-23T00:21:38.201Z,13.30
2019-05-23T00:22:38.187Z,12.30
2019-05-23T00:23:38.193Z,12.50
2019-05-23T00:24:38.171Z,12.70
2019-05-23T00:25:38.163Z,12.00
2019-05-23T00:26:38.161Z,12.50
2019-05-23T00:27:38.138Z,13.00
2019-05-23T00:28:38.139Z,13.50
2019-05-23T00:29:40.423Z,12.50
2019-05-23T00:30:38.112Z,14.80
2019-05-23T00:31:38.097Z,14.80
2019-05-23T00:32:38.102Z,13.60
2019-05-23T00:33:38.078Z,13.20
2019-05-23T00:34:38.085Z,14.30
2019-05-23T00:35:38.047Z,14.50
2019-05-23T00:36:38.036Z,14.60
2019-05-23T00:37:38.046Z,13.40
2019-05-23T00:38:38.066Z,14.70
2019-05-23T00:39:38.017Z,15.70
2019-05-23T00:40:38.039Z,15.00
2019-05-23T00:41:38.005Z,14.70
2019-05-23T00:42:38.007Z,13.40
2019-05-23T00:43:37.971Z,15.20
2019-05-23T00:44:37.963Z,14.00
2019-05-23T00:45:37.968Z,14.90
2019-05-23T00:46:37.953Z,12.80
2019-05-23T00:47:37.942Z,14.20
2019-05-23T00:48:37.936Z,13.50
2019-05-23T00:49:37.933Z,15.30
2019-05-23T00:50:37.919Z,14.70
2019-05-23T00:51:37.893Z,14.50
2019-05-23T00:52:37.869Z,15.80
2019-05-23T00:53:37.898Z,16.50
2019-05-23T00:54:37.880Z,14.60
2019-05-23T00:55:37.840Z,14.30
2019-05-23T00:56:37.836Z,16.30
2019-05-23T00:57:37.820Z,16.00
2019-05-23T00:58:37.809Z,14.30
2019-05-23T00:59:37.809Z,17.20
2019-05-23T01:00:37.796Z,16.70
2019-05-23T01:01:37.943Z,15.90
2019-05-23T01:02:37.766Z,14.00
2019-05-23T01:03:37.746Z,16.90
2019-05-23T01:04:37.755Z,16.10
2019-05-23T01:05:37.729Z,15.00
2019-05-23T01:06:37.738Z,16.40
2019-05-23T01:07:37.705Z,14.80
2019-05-23T01:08:37.707Z,16.90
2019-05-23T01:09:37.710Z,14.90
2019-05-23T01:10:37.674Z,15.40
2019-05-23T01:11:37.679Z,14.90
2019-05-23T01:13:47.941Z,15.80
2019-05-23T01:14:47.579Z,15.40
2019-05-23T01:15:46.567Z,17.20
2019-05-23T01:16:46.538Z,15.60
2019-05-23T01:17:46.527Z,16.50
2019-05-23T01:18:46.518Z,15.50
2019-05-23T01:19:46.518Z,16.00
2019-05-23T01:20:46.497Z,15.60
2019-05-23T01:21:46.767Z,15.10
2019-05-23T01:22:46.479Z,15.90
2019-05-23T01:23:46.483Z,16.70
2019-05-23T01:24:46.465Z,16.00
2019-05-23T01:25:46.467Z,16.40
2019-05-23T01:26:46.434Z,15.30
2019-05-23T01:27:46.429Z,16.10
2019-05-23T01:28:46.492Z,15.70
2019-05-23T01:29:49.649Z,16.80
2019-05-23T01:30:46.403Z,14.40
2019-05-23T01:31:46.402Z,15.40
2019-05-23T01:32:46.374Z,14.60
2019-05-23T01:33:46.351Z,17.10
2019-05-23T01:34:46.352Z,15.30
2019-05-23T01:35:46.351Z,15.20
2019-05-23T01:36:46.331Z,15.80
2019-05-23T01:37:46.310Z,16.10
2019-05-23T01:38:46.300Z,17.40
2019-05-23T01:39:46.312Z,16.00
2019-05-23T01:40:46.299Z,17.80
2019-05-23T01:41:46.288Z,16.00
2019-05-23T01:42:46.303Z,16.40
2019-05-23T01:43:46.248Z,14.60
2019-05-23T01:44:46.239Z,16.50
2019-05-23T01:45:46.241Z,15.40
2019-05-23T01:46:46.217Z,15.50
2019-05-23T01:47:46.227Z,15.70
2019-05-23T01:48:46.198Z,14.80
2019-05-23T01:49:46.187Z,14.40
2019-05-23T01:50:46.196Z,16.00
2019-05-23T01:51:46.165Z,16.10
2019-05-23T01:52:46.164Z,15.50
2019-05-23T01:53:46.144Z,16.60
2019-05-23T01:54:46.133Z,16.80
2019-05-23T01:55:46.133Z,16.40
2019-05-23T01:56:46.122Z,15.70
2019-05-23T01:57:46.103Z,15.70
2019-05-23T01:58:46.102Z,19.00
2019-05-23T01:59:46.081Z,18.30
2019-05-23T02:00:46.092Z,20.20
2019-05-23T02:01:46.061Z,17.20
2019-05-23T02:02:46.046Z,17.60
2019-05-23T02:03:46.033Z,17.70
2019-05-23T02:04:46.028Z,18.10
2019-05-23T02:05:46.028Z,19.50
2019-05-23T02:06:46.008Z,16.60
2019-05-23T02:07:45.998Z,16.40
2019-05-23T02:08:46.000Z,18.10
2019-05-23T02:09:45.979Z,17.40
2019-05-23T02:10:46.013Z,18.30
2019-05-23T02:11:45.952Z,18.30
2019-05-23T02:12:45.962Z,17.00
2019-05-23T02:13:45.937Z,19.00
2019-05-23T02:14:45.972Z,17.80
2019-05-23T02:15:45.906Z,17.50
2019-05-23T02:16:45.895Z,17.60
2019-05-23T02:17:45.903Z,18.90
2019-05-23T02:18:45.875Z,18.20
2019-05-23T02:19:45.875Z,18.80
2019-05-23T02:20:45.856Z,19.60
2019-05-23T02:21:45.846Z,18.80
2019-05-23T02:22:45.832Z,20.30
2019-05-23T02:23:45.833Z,18.00
2019-05-23T02:24:45.815Z,19.20
2019-05-23T02:25:45.807Z,18.90
2019-05-23T02:26:45.789Z,17.90
2019-05-23T02:27:45.772Z,18.30
2019-05-23T02:28:45.772Z,19.30
2019-05-23T02:29:45.768Z,21.30
2019-05-23T02:30:45.752Z,18.00
2019-05-23T02:31:45.756Z,19.90
2019-05-23T02:32:45.720Z,20.00
2019-05-23T02:33:45.729Z,18.90
2019-05-23T02:34:45.708Z,18.80
2019-05-23T02:35:45.689Z,19.20
2019-05-23T02:36:45.690Z,19.40
2019-05-23T02:37:45.667Z,25.90
2019-05-23T02:38:45.668Z,20.50
2019-05-23T02:39:45.645Z,19.90
2019-05-23T02:40:45.648Z,19.60
2019-05-23T02:41:45.626Z,19.60
2019-05-23T02:42:45.619Z,22.40
2019-05-23T02:43:45.611Z,19.60
2019-05-23T02:44:45.607Z,21.90
2019-05-23T02:45:45.585Z,22.20
2019-05-23T02:46:45.587Z,20.90
2019-05-23T02:47:45.572Z,20.70
2019-05-23T02:48:45.544Z,19.40
2019-05-23T02:49:45.547Z,22.50
2019-05-23T02:50:45.523Z,21.40
2019-05-23T02:51:45.572Z,22.40
2019-05-23T02:52:45.501Z,21.30
2019-05-23T02:53:45.503Z,20.40
2019-05-23T02:54:45.501Z,23.00
2019-05-23T02:55:45.474Z,21.50
2019-05-23T02:56:45.496Z,23.70
2019-05-23T02:57:45.470Z,21.40
2019-05-23T02:58:45.459Z,21.40
2019-05-23T02:59:45.541Z,21.40
2019-05-23T03:00:54.249Z,19.70
2019-05-23T03:01:46.417Z,23.70
2019-05-23T03:02:45.399Z,25.90
2019-05-23T03:03:45.389Z,22.30
2019-05-23T03:04:45.379Z,22.10
2019-05-23T03:05:45.378Z,22.00
2019-05-23T03:06:45.366Z,21.70
2019-05-23T03:07:45.358Z,23.00
2019-05-23T03:08:45.354Z,22.60
2019-05-23T03:09:45.330Z,22.40
2019-05-23T03:10:45.316Z,21.80
2019-05-23T03:11:45.307Z,21.40
2019-05-23T03:12:45.305Z,22.50
2019-05-23T03:13:45.284Z,23.40
2019-05-23T03:14:45.287Z,24.70
2019-05-23T03:15:45.267Z,21.60
2019-05-23T03:16:45.251Z,23.30
2019-05-23T03:17:45.260Z,23.40
2019-05-23T03:18:45.247Z,20.90
2019-05-23T03:19:45.241Z,27.10
2019-05-23T03:20:45.209Z,24.20
2019-05-23T03:21:45.199Z,22.90
2019-05-23T03:22:45.203Z,23.80
2019-05-23T03:23:45.180Z,21.80
2019-05-23T03:24:45.168Z,22.80
2019-05-23T03:25:45.158Z,21.80
2019-05-23T03:26:45.151Z,25.30
2019-05-23T03:27:45.158Z,24.20
2019-05-23T03:28:45.118Z,26.50
2019-05-23T03:29:45.116Z,25.30
2019-05-23T03:30:45.124Z,24.40
2019-05-23T03:31:45.120Z,26.80
2019-05-23T03:32:45.076Z,24.80
2019-05-23T03:33:45.076Z,23.00
2019-05-23T03:34:45.122Z,26.70
2019-05-23T03:35:45.066Z,26.90
2019-05-23T03:36:45.047Z,24.40
2019-05-23T03:37:45.135Z,25.10
2019-05-23T03:38:45.015Z,25.10
2019-05-23T03:39:45.007Z,23.70
2019-05-23T03:40:44.992Z,25.10
2019-05-23T03:41:44.985Z,27.60
2019-05-23T03:42:44.983Z,25.80
2019-05-23T03:43:44.970Z,24.50
2019-05-23T03:44:44.957Z,24.30
2019-05-23T03:45:44.931Z,27.40
2019-05-23T03:46:44.940Z,25.20
2019-05-23T03:47:44.918Z,24.40
2019-05-23T03:48:44.918Z,23.90
2019-05-23T03:49:44.900Z,26.90
2019-05-23T03:50:44.889Z,27.60
2019-05-23T03:51:44.881Z,26.70
2019-05-23T03:52:44.865Z,25.90
2019-05-23T03:53:44.866Z,26.30
2019-05-23T03:54:44.848Z,25.50
2019-05-23T03:55:44.830Z,27.60
2019-05-23T03:56:44.826Z,26.00
2019-05-23T03:57:44.807Z,24.20
2019-05-23T03:58:44.827Z,28.70
2019-05-23T03:59:44.795Z,26.10
2019-05-23T04:00:44.785Z,27.30
2019-05-23T04:01:48.311Z,30.50
2019-05-23T04:02:44.764Z,30.10
2019-05-23T04:03:44.775Z,24.90
2019-05-23T04:04:44.743Z,27.00
2019-05-23T04:05:44.722Z,26.70
2019-05-23T04:06:44.733Z,24.90
2019-05-23T04:07:44.718Z,26.30
2019-05-23T04:08:44.691Z,27.10
2019-05-23T04:09:44.702Z,26.10
2019-05-23T04:10:45.281Z,27.60
2019-05-23T04:11:44.698Z,26.80
2019-05-23T04:12:44.683Z,27.30
2019-05-23T04:13:44.639Z,27.30
2019-05-23T04:14:44.647Z,27.70
2019-05-23T04:15:44.632Z,28.70
2019-05-23T04:16:44.611Z,28.50
2019-05-23T04:17:44.607Z,28.60
2019-05-23T04:18:44.586Z,26.40
2019-05-23T04:19:44.608Z,26.40
2019-05-23T04:20:44.566Z,26.10
2019-05-23T04:21:44.557Z,26.20
2019-05-23T04:22:44.557Z,26.00
2019-05-23T04:23:44.535Z,28.50
2019-05-23T04:24:44.536Z,25.10
2019-05-23T04:25:44.514Z,27.50
2019-05-23T04:26:44.528Z,26.10
2019-05-23T04:27:44.495Z,26.90
2019-05-23T04:28:44.483Z,26.00
2019-05-23T04:29:44.476Z,25.60
2019-05-23T04:30:44.471Z,27.80
2019-05-23T04:31:44.452Z,28.00
2019-05-23T04:32:44.452Z,26.20
2019-05-23T04:33:44.432Z,28.80
2019-05-23T04:34:44.440Z,28.90
2019-05-23T04:35:44.430Z,26.60
2019-05-23T04:36:44.396Z,29.00
2019-05-23T04:37:44.379Z,27.20
2019-05-23T04:38:44.388Z,27.50
2019-05-23T04:39:44.370Z,27.40
2019-05-23T04:40:44.349Z,26.80
2019-05-23T04:41:44.339Z,27.00
2019-05-23T04:42:44.337Z,28.60
2019-05-23T04:43:44.345Z,28.50
2019-05-23T04:44:44.898Z,27.70
2019-05-23T04:45:44.316Z,29.00
2019-05-23T04:46:44.299Z,26.50
2019-05-23T04:47:44.294Z,30.40
2019-05-23T04:48:44.265Z,25.80
2019-05-23T04:49:44.264Z,28.40
2019-05-23T04:50:44.254Z,26.50
2019-05-23T04:51:44.235Z,27.50
2019-05-23T04:52:44.223Z,27.30
2019-05-23T04:53:44.224Z,27.60
2019-05-23T04:54:44.214Z,25.50
2019-05-23T04:55:44.223Z,28.20
2019-05-23T04:56:44.184Z,30.20
2019-05-23T04:57:44.175Z,26.80
2019-05-23T04:58:44.185Z,31.50
2019-05-23T04:59:44.163Z,30.40
2019-05-23T05:00:44.153Z,28.00
2019-05-23T05:01:44.136Z,26.20
2019-05-23T05:02:44.131Z,35.20
2019-05-23T05:03:44.110Z,27.00
2019-05-23T05:04:44.103Z,28.60
2019-05-23T05:05:44.098Z,28.00
2019-05-23T05:06:44.079Z,27.90
2019-05-23T05:07:44.078Z,28.50
2019-05-23T05:08:44.050Z,28.30
2019-05-23T05:09:44.057Z,28.10
2019-05-23T05:10:44.045Z,29.30
2019-05-23T05:11:44.015Z,28.80
2019-05-23T05:12:44.016Z,27.70
2019-05-23T05:13:43.995Z,28.60
2019-05-23T05:14:43.994Z,27.10
2019-05-23T05:15:43.995Z,28.10
2019-05-23T05:16:43.973Z,29.40
2019-05-23T05:17:43.980Z,31.60
2019-05-23T05:18:43.978Z,28.80
2019-05-23T05:19:43.957Z,28.90
2019-05-23T05:20:43.950Z,29.90
2019-05-23T05:21:43.913Z,28.30
2019-05-23T05:22:43.921Z,29.90
2019-05-23T05:23:43.891Z,28.30
2019-05-23T05:24:43.881Z,28.00
2019-05-23T05:25:43.870Z,27.60
2019-05-23T05:26:43.880Z,30.00
2019-05-23T05:27:43.852Z,27.00
2019-05-23T05:28:43.911Z,28.80
2019-05-23T05:29:43.829Z,27.00
2019-05-23T05:30:43.849Z,27.30
2019-05-23T05:31:44.620Z,30.10
2019-05-23T05:32:45.553Z,27.90
2019-05-23T05:33:43.788Z,27.20
2019-05-23T05:34:43.776Z,26.90
2019-05-23T05:35:43.795Z,26.70
2019-05-23T05:36:43.758Z,29.30
2019-05-23T05:37:43.780Z,31.30
2019-05-23T05:38:43.743Z,29.60
2019-05-23T05:39:43.716Z,31.70
2019-05-23T05:40:43.719Z,29.20
2019-05-23T05:41:43.694Z,28.70
2019-05-23T05:42:43.685Z,31.30
2019-05-23T05:43:43.704Z,29.80
2019-05-23T05:44:43.685Z,28.10
2019-05-23T05:45:43.647Z,31.60
2019-05-23T05:46:43.665Z,30.30
2019-05-23T05:47:43.658Z,30.50
2019-05-23T05:48:43.624Z,29.80
2019-05-23T05:49:43.623Z,29.00
2019-05-23T05:50:43.607Z,28.30
2019-05-23T05:51:43.592Z,29.60
2019-05-23T05:52:43.603Z,30.00
2019-05-23T05:53:43.581Z,32.70
2019-05-23T05:54:43.550Z,29.20
2019-05-23T05:55:43.551Z,29.70
2019-05-23T05:56:43.534Z,30.80
2019-05-23T05:57:43.602Z,33.40
2019-05-23T05:58:43.526Z,28.40
2019-05-23T05:59:43.501Z,29.80
2019-05-23T06:00:43.523Z,29.80
2019-05-23T06:01:43.479Z,25.90
2019-05-23T06:03:00.787Z,27.40
2019-05-23T06:03:44.459Z,31.60
2019-05-23T06:04:43.453Z,26.90
2019-05-23T06:05:43.447Z,26.80
2019-05-23T06:06:43.422Z,25.60
2019-05-23T06:07:43.417Z,28.50
2019-05-23T06:08:43.396Z,29.00
2019-05-23T06:09:43.386Z,26.70
2019-05-23T06:10:44.160Z,25.50
2019-05-23T06:11:43.366Z,29.10
2019-05-23T06:12:43.356Z,25.60
2019-05-23T06:13:43.345Z,26.20
2019-05-23T06:14:46.534Z,27.80
2019-05-23T06:15:43.339Z,25.40
2019-05-23T06:16:43.318Z,29.30
2019-05-23T06:17:43.331Z,29.20
2019-05-23T06:18:43.296Z,25.70
2019-05-23T06:19:43.286Z,28.30
2019-05-23T06:20:43.296Z,25.20
2019-05-23T06:21:43.273Z,27.10
2019-05-23T06:22:43.253Z,28.00
2019-05-23T06:23:43.243Z,26.40
2019-05-23T06:24:49.376Z,26.40
2019-05-23T06:25:44.231Z,26.00
2019-05-23T06:26:43.211Z,28.40
2019-05-23T06:27:43.203Z,27.70
2019-05-23T06:28:43.191Z,26.20
2019-05-23T06:29:43.197Z,27.50
2019-05-23T06:30:43.670Z,26.10
2019-05-23T06:31:43.201Z,26.70
2019-05-23T06:32:43.173Z,27.90
2019-05-23T06:33:43.130Z,25.40
2019-05-23T06:34:43.132Z,26.70
2019-05-23T06:35:43.128Z,26.60
2019-05-23T06:36:43.151Z,26.40
2019-05-23T06:37:43.128Z,25.50
2019-05-23T06:38:43.089Z,23.90
2019-05-23T06:39:43.074Z,24.90
2019-05-23T06:40:43.069Z,24.10
2019-05-23T06:41:43.049Z,26.70
2019-05-23T06:42:43.038Z,26.30
2019-05-23T06:43:43.053Z,24.90
2019-05-23T06:44:43.021Z,25.20
2019-05-23T06:45:43.017Z,24.30
2019-05-23T06:46:43.000Z,25.50
2019-05-23T06:47:43.117Z,23.90
2019-05-23T06:48:45.715Z,25.00
2019-05-23T06:49:42.968Z,28.10
2019-05-23T06:50:42.958Z,21.80
2019-05-23T06:51:42.947Z,23.10
2019-05-23T06:52:42.984Z,24.00
2019-05-23T06:53:42.941Z,21.80
2019-05-23T06:54:42.930Z,24.30
2019-05-23T06:55:42.898Z,22.60
2019-05-23T06:56:42.895Z,21.90
2019-05-23T06:57:42.898Z,20.30
2019-05-23T06:58:42.883Z,20.10
2019-05-23T06:59:42.864Z,20.80
2019-05-23T07:00:42.933Z,21.00
2019-05-23T07:01:42.844Z,20.10
2019-05-23T07:02:42.844Z,19.50
2019-05-23T07:03:43.808Z,21.60
2019-05-23T07:04:42.806Z,18.30
2019-05-23T07:05:42.794Z,23.10
2019-05-23T07:06:42.806Z,19.60
2019-05-23T07:07:42.813Z,17.70
2019-05-23T07:08:42.764Z,20.70
2019-05-23T07:09:42.763Z,18.00
2019-05-23T07:10:42.843Z,18.50
2019-05-23T07:11:42.733Z,20.60
2019-05-23T07:12:45.763Z,17.00
2019-05-23T07:13:42.711Z,19.10
2019-05-23T07:14:42.714Z,18.20
2019-05-23T07:15:42.704Z,17.80
2019-05-23T07:16:42.692Z,18.00
2019-05-23T07:17:42.703Z,17.00
2019-05-23T07:18:42.662Z,18.50
2019-05-23T07:19:42.671Z,17.50
2019-05-23T07:20:42.647Z,16.40
2019-05-23T07:21:42.631Z,18.60
2019-05-23T07:22:42.658Z,17.20
2019-05-23T07:23:42.611Z,17.00
2019-05-23T07:24:56.829Z,17.80
2019-05-23T07:25:43.590Z,18.60
2019-05-23T07:26:42.585Z,17.50
2019-05-23T07:27:42.615Z,19.20
2019-05-23T07:28:43.360Z,17.80
2019-05-23T07:29:42.610Z,17.70
2019-05-23T07:30:43.866Z,20.50
2019-05-23T07:31:42.529Z,16.30
2019-05-23T07:32:42.530Z,18.70
2019-05-23T07:34:00.420Z,17.50
2019-05-23T07:34:43.500Z,18.30
2019-05-23T07:35:42.503Z,15.80
2019-05-23T07:36:42.586Z,16.50
2019-05-23T07:37:42.469Z,18.50
2019-05-23T07:38:42.470Z,17.60
2019-05-23T07:39:42.459Z,17.60
2019-05-23T07:40:42.440Z,16.90
2019-05-23T07:41:42.950Z,17.80
2019-05-23T07:42:42.419Z,16.10
2019-05-23T07:43:42.482Z,17.00
2019-05-23T07:44:48.377Z,18.10
2019-05-23T07:45:43.386Z,16.60
2019-05-23T07:46:42.378Z,16.10
2019-05-23T07:47:42.370Z,14.80
2019-05-23T07:48:42.375Z,17.10
2019-05-23T07:49:42.366Z,18.00
2019-05-23T07:50:42.337Z,16.00
2019-05-23T07:51:42.330Z,16.70
2019-05-23T07:52:42.336Z,16.30
2019-05-23T07:53:43.990Z,15.40
2019-05-23T07:54:42.304Z,18.90
2019-05-23T07:55:42.311Z,17.20
2019-05-23T07:56:42.286Z,15.80
2019-05-23T07:57:42.277Z,19.30
2019-05-23T07:58:42.272Z,15.40
2019-05-23T07:59:42.247Z,15.00
2019-05-23T08:00:42.244Z,14.90
2019-05-23T08:01:42.235Z,17.00
2019-05-23T08:02:42.219Z,15.90
2019-05-23T08:03:42.204Z,15.90
2019-05-23T08:04:42.195Z,15.60
2019-05-23T08:05:42.203Z,16.30
2019-05-23T08:06:42.196Z,15.40
2019-05-23T08:07:42.252Z,15.20
2019-05-23T08:08:42.172Z,15.00
2019-05-23T08:09:42.153Z,15.60
2019-05-23T08:10:42.153Z,15.60
2019-05-23T08:11:42.208Z,18.10
2019-05-23T08:12:42.140Z,14.00
2019-05-23T08:13:42.106Z,14.40
2019-05-23T08:14:42.103Z,15.70
2019-05-23T08:15:42.083Z,15.00
2019-05-23T08:16:42.106Z,14.00
2019-05-23T08:17:42.072Z,16.00
2019-05-23T08:18:42.052Z,14.30
2019-05-23T08:19:49.646Z,15.80
2019-05-23T08:20:43.036Z,16.80
2019-05-23T08:21:42.071Z,14.10
2019-05-23T08:22:42.272Z,16.40
2019-05-23T08:23:42.062Z,14.30
2019-05-23T08:24:42.000Z,14.10
2019-05-23T08:25:42.018Z,16.40
2019-05-23T08:26:41.991Z,15.10
2019-05-23T08:27:42.000Z,17.50
2019-05-23T08:29:00.984Z,18.80
2019-05-23T08:29:42.940Z,14.30
2019-05-23T08:30:41.981Z,17.60
2019-05-23T08:31:41.944Z,14.10
2019-05-23T08:32:41.930Z,19.20
2019-05-23T08:33:41.901Z,15.80
2019-05-23T08:34:43.054Z,15.90
2019-05-23T08:35:41.884Z,13.80
2019-05-23T08:36:41.899Z,13.50
2019-05-23T08:37:41.869Z,14.80
2019-05-23T08:38:41.862Z,12.80
2019-05-23T08:39:41.850Z,16.80
2019-05-23T08:40:41.839Z,17.80
2019-05-23T08:41:41.841Z,12.80
2019-05-23T08:42:41.824Z,11.80
2019-05-23T08:43:41.811Z,12.00
2019-05-23T08:44:41.788Z,11.90
2019-05-23T08:45:41.797Z,14.20
2019-05-23T08:46:41.775Z,13.30
2019-05-23T08:47:41.767Z,14.60
2019-05-23T08:48:41.767Z,13.80
2019-05-23T08:49:41.748Z,14.40
2019-05-23T08:50:41.739Z,15.80
2019-05-23T08:51:41.727Z,14.10
2019-05-23T08:52:41.717Z,11.90
2019-05-23T08:53:41.730Z,12.30
2019-05-23T08:54:41.697Z,13.70
2019-05-23T08:55:41.695Z,13.50
2019-05-23T08:56:41.666Z,12.30
2019-05-23T08:57:41.677Z,12.40
2019-05-23T08:58:41.662Z,16.90
2019-05-23T08:59:41.646Z,16.30
2019-05-23T09:00:41.638Z,12.20
2019-05-23T09:01:41.631Z,13.60
2019-05-23T09:02:41.626Z,13.40
2019-05-23T09:03:41.628Z,13.30
2019-05-23T09:05:01.221Z,13.50
2019-05-23T09:05:43.281Z,15.90
2019-05-23T09:06:41.575Z,16.10
2019-05-23T09:07:41.566Z,16.10
2019-05-23T09:08:42.387Z,15.40
2019-05-23T09:09:41.564Z,17.30
2019-05-23T09:10:41.542Z,16.00
2019-05-23T09:11:41.524Z,15.90
2019-05-23T09:12:41.524Z,17.00
2019-05-23T09:13:41.525Z,18.70
2019-05-23T09:14:41.514Z,16.90
2019-05-23T09:15:41.484Z,17.10
2019-05-23T09:16:41.501Z,21.00
2019-05-23T09:17:52.236Z,16.60
2019-05-23T09:18:42.465Z,16.50
2019-05-23T09:19:41.444Z,16.50
2019-05-23T09:20:41.433Z,16.80
2019-05-23T09:21:41.453Z,19.00
2019-05-23T09:22:41.422Z,19.10
2019-05-23T09:23:41.404Z,19.30
2019-05-23T09:24:42.063Z,21.60
2019-05-23T09:25:42.057Z,18.20
2019-05-23T09:26:41.382Z,20.60
2019-05-23T09:27:41.376Z,20.70
2019-05-23T09:28:41.372Z,17.40
2019-05-23T09:29:41.341Z,19.60
2019-05-23T09:30:41.352Z,20.10
2019-05-23T09:31:41.326Z,19.60
2019-05-23T09:32:41.311Z,19.20
2019-05-23T09:33:41.301Z,20.30
2019-05-23T09:34:41.286Z,25.40
2019-05-23T09:35:41.290Z,23.20
2019-05-23T09:36:41.271Z,19.60
2019-05-23T09:37:41.272Z,21.50
2019-05-23T09:38:41.242Z,19.10
2019-05-23T09:39:41.249Z,18.60
2019-05-23T09:40:41.231Z,21.90
2019-05-23T09:41:41.215Z,23.50
2019-05-23T09:42:41.210Z,22.00
2019-05-23T09:43:41.198Z,17.50
2019-05-23T09:44:41.188Z,17.00
2019-05-23T09:45:41.177Z,19.90
2019-05-23T09:46:41.168Z,19.20
2019-05-23T09:47:41.148Z,20.50
2019-05-23T09:48:41.140Z,18.70
2019-05-23T09:49:41.227Z,23.70
2019-05-23T09:50:41.116Z,20.20
2019-05-23T09:51:41.145Z,20.90
2019-05-23T09:52:41.095Z,19.80
2019-05-23T09:53:46.730Z,20.90
2019-05-23T09:54:42.100Z,18.60
2019-05-23T09:55:41.090Z,17.80
2019-05-23T09:56:41.065Z,17.20
2019-05-23T09:57:41.064Z,20.40
2019-05-23T09:58:41.028Z,19.90
2019-05-23T09:59:41.025Z,17.10
2019-05-23T10:00:41.005Z,17.50
2019-05-23T10:01:41.008Z,17.20
2019-05-23T10:02:41.019Z,16.20
2019-05-23T10:03:40.981Z,16.80
2019-05-23T10:04:40.990Z,15.20
2019-05-23T10:05:43.848Z,17.10
2019-05-23T10:06:40.953Z,15.60
2019-05-23T10:07:40.996Z,15.50
2019-05-23T10:08:40.934Z,15.40
2019-05-23T10:09:40.952Z,16.70
2019-05-23T10:10:40.922Z,16.50
2019-05-23T10:11:40.892Z,15.50
2019-05-23T10:12:40.950Z,12.60
2019-05-23T10:13:40.881Z,15.30
2019-05-23T10:14:40.863Z,12.10
2019-05-23T10:15:40.851Z,14.70
2019-05-23T10:16:40.840Z,13.60
2019-05-23T10:17:40.843Z,15.20
2019-05-23T10:18:40.821Z,14.00
2019-05-23T10:19:40.830Z,11.70
2019-05-23T10:20:40.832Z,13.10
2019-05-23T10:21:40.801Z,9.60
2019-05-23T10:22:40.779Z,10.00
2019-05-23T10:23:40.762Z,11.40
2019-05-23T10:24:40.769Z,9.60
2019-05-23T10:25:40.752Z,10.30
2019-05-23T10:26:40.729Z,9.50
2019-05-23T10:27:40.719Z,9.80
2019-05-23T10:28:40.719Z,11.20
2019-05-23T10:29:40.718Z,9.90
2019-05-23T10:30:40.693Z,10.50
2019-05-23T10:31:40.687Z,11.00
2019-05-23T10:32:40.688Z,10.30
2019-05-23T10:33:40.667Z,9.40
2019-05-23T10:34:40.673Z,8.50
2019-05-23T10:35:56.938Z,9.70
2019-05-23T10:36:41.625Z,9.80
2019-05-23T10:37:40.646Z,8.10
2019-05-23T10:39:49.556Z,8.70
2019-05-23T10:40:49.510Z,7.50
2019-05-23T10:41:49.497Z,8.50
2019-05-23T10:42:49.506Z,7.70
2019-05-23T10:43:49.499Z,8.60
2019-05-23T10:44:49.463Z,7.70
2019-05-23T10:45:49.464Z,7.40
2019-05-23T10:46:49.439Z,7.40
2019-05-23T10:47:49.426Z,10.80
2019-05-23T10:48:49.436Z,10.20
2019-05-23T10:49:49.416Z,6.70
2019-05-23T10:50:49.405Z,10.10
2019-05-23T10:51:49.418Z,7.10
2019-05-23T10:52:49.409Z,8.30
2019-05-23T10:53:49.374Z,7.00
2019-05-23T10:54:49.354Z,9.30
2019-05-23T10:55:49.357Z,7.50
2019-05-23T10:56:49.337Z,7.60
2019-05-23T10:57:49.323Z,7.50
2019-05-23T10:58:49.343Z,7.50
2019-05-23T10:59:49.303Z,10.20
2019-05-23T11:00:49.293Z,6.80
2019-05-23T11:01:49.286Z,5.50
2019-05-23T11:02:49.271Z,8.90
2019-05-23T11:03:49.283Z,10.70
2019-05-23T11:04:49.282Z,10.50
2019-05-23T11:05:49.245Z,7.10
2019-05-23T11:06:49.271Z,6.60
2019-05-23T11:07:49.239Z,7.00
2019-05-23T11:08:49.255Z,7.00
2019-05-23T11:09:49.259Z,5.90
2019-05-23T11:10:49.210Z,5.90
2019-05-23T11:11:49.191Z,6.60
2019-05-23T11:12:49.169Z,5.00
2019-05-23T11:13:49.180Z,7.60
2019-05-23T11:14:49.165Z,8.90
2019-05-23T11:15:49.149Z,5.60
2019-05-23T11:16:49.128Z,6.90
2019-05-23T11:17:53.084Z,5.10
2019-05-23T11:18:49.168Z,7.00
2019-05-23T11:19:49.100Z,7.30
2019-05-23T11:20:49.215Z,5.10
2019-05-23T11:21:49.077Z,5.20
2019-05-23T11:22:49.067Z,6.80
2019-05-23T11:23:49.095Z,8.90
2019-05-23T11:24:49.062Z,4.80
2019-05-23T11:25:49.037Z,7.20
2019-05-23T11:26:49.033Z,6.90
2019-05-23T11:27:49.064Z,8.40
2019-05-23T11:28:48.999Z,7.80
2019-05-23T11:29:48.995Z,6.60
2019-05-23T11:30:49.026Z,5.70
2019-05-23T11:31:48.977Z,5.40
2019-05-23T11:32:48.969Z,3.40
2019-05-23T11:33:48.970Z,4.40
2019-05-23T11:34:49.093Z,4.50
2019-05-23T11:35:48.933Z,4.40
2019-05-23T11:36:48.955Z,5.60
2019-05-23T11:37:48.904Z,4.70
2019-05-23T11:38:48.903Z,6.10
2019-05-23T11:39:51.145Z,3.80
2019-05-23T11:40:48.872Z,6.70
2019-05-23T11:41:48.873Z,4.60
2019-05-23T11:42:52.508Z,3.90
2019-05-23T11:43:48.854Z,3.10
2019-05-23T11:44:48.837Z,4.80
2019-05-23T11:45:48.822Z,3.90
2019-05-23T11:46:48.824Z,3.10
2019-05-23T11:47:48.822Z,4.90
2019-05-23T11:48:48.793Z,5.50
2019-05-23T11:49:48.871Z,3.80
2019-05-23T11:50:48.770Z,4.30
2019-05-23T11:51:48.773Z,3.50
2019-05-23T11:52:48.749Z,3.50
2019-05-23T11:54:05.869Z,3.90
2019-05-23T11:54:49.729Z,3.00
2019-05-23T11:55:53.272Z,5.70
2019-05-23T11:56:49.698Z,3.60
2019-05-23T11:57:48.688Z,5.00
2019-05-23T11:58:48.692Z,3.90
2019-05-23T11:59:48.677Z,3.10
2019-05-23T12:00:48.704Z,3.80
2019-05-23T12:01:48.657Z,4.30
2019-05-23T12:02:48.646Z,4.70
2019-05-23T12:03:48.630Z,4.10
2019-05-23T12:04:48.657Z,2.40
2019-05-23T12:05:48.631Z,4.40
2019-05-23T12:06:55.334Z,3.40
2019-05-23T12:07:49.588Z,4.30
2019-05-23T12:08:48.656Z,4.30
2019-05-23T12:09:48.588Z,5.40
2019-05-23T12:10:48.579Z,5.10
2019-05-23T12:11:48.568Z,5.20
2019-05-23T12:12:48.549Z,4.80
2019-05-23T12:13:48.560Z,5.10
2019-05-23T12:14:48.535Z,4.90
2019-05-23T12:15:48.506Z,3.00
2019-05-23T12:16:48.526Z,3.90
2019-05-23T12:17:48.484Z,5.00
2019-05-23T12:18:48.483Z,3.80
2019-05-23T12:19:48.496Z,6.80
2019-05-23T12:20:48.492Z,5.70
2019-05-23T12:21:48.463Z,3.00
2019-05-23T12:22:48.463Z,6.20
2019-05-23T12:23:48.474Z,6.90
2019-05-23T12:24:48.464Z,3.30
2019-05-23T12:25:48.421Z,5.40
2019-05-23T12:26:48.425Z,4.30
2019-05-23T12:27:48.740Z,4.40
2019-05-23T12:28:48.375Z,3.10
2019-05-23T12:29:48.380Z,6.60
2019-05-23T12:30:48.349Z,3.70
2019-05-23T12:31:49.778Z,3.40
2019-05-23T12:32:48.349Z,3.60
2019-05-23T12:33:48.342Z,5.30
2019-05-23T12:35:08.450Z,6.40
2019-05-23T12:35:49.327Z,3.20
2019-05-23T12:36:48.290Z,5.40
2019-05-23T12:37:48.278Z,7.10
2019-05-23T12:38:48.269Z,3.30
2019-05-23T12:39:48.299Z,3.10
2019-05-23T12:40:48.254Z,4.70
2019-05-23T12:41:48.226Z,4.80
2019-05-23T12:42:48.227Z,3.50
2019-05-23T12:43:48.537Z,5.30
2019-05-23T12:44:48.206Z,5.00
2019-05-23T12:45:48.193Z,5.10
2019-05-23T12:46:48.282Z,4.60
2019-05-23T12:47:48.184Z,3.90
2019-05-23T12:48:48.165Z,5.50
2019-05-23T12:49:48.163Z,2.90
2019-05-23T12:50:52.631Z,7.80
2019-05-23T12:51:49.133Z,3.30
2019-05-23T12:52:48.113Z,5.10
2019-05-23T12:53:48.103Z,4.90
2019-05-23T12:54:48.103Z,4.50
2019-05-23T12:55:48.084Z,4.70
2019-05-23T12:56:49.151Z,4.80
2019-05-23T12:57:48.062Z,7.40
2019-05-23T12:58:48.054Z,7.80
2019-05-23T12:59:48.065Z,5.90